Time;durP1;ratioP1;P1;durP2;ratioP2;P2;SDS_P1;SDS_P2;PMS_P1;PMS_P2;Temp;Humidity;BMP_temperature;BMP_pressure;BME280_temperature;BME280_humidity;BME280_pressure;Samples;Min_cycle;Max_cycle;Signal;HPM_P1;HPM_P2
2024/01/28 00:02:15;;;;;;;28.88;2.25;;;;;;;32.39;23.01;100654.53;7396116;19;20128;-85
2024/01/28 00:04:41;;;;;;;19.75;1.13;;;;;;;32.35;23.32;100649.25;7390880;19;20011;-88
2024/01/28 00:07:07;;;;;;;0.73;0.10;;;;;;;32.61;23.02;100633.88;7392374;19;20501;-87
2024/01/28 00:09:33;;;;;;;13.63;2.33;;;;;;;32.68;23.00;100635.81;7396625;19;20014;-87
2024/01/28 00:12:00;;;;;;;4.90;0.73;;;;;;;32.64;22.97;100629.75;7392324;19;20011;-87
2024/01/28 00:14:26;;;;;;;1.48;1.30;;;;;;;32.48;22.78;100617.06;7393961;19;20014;-87
2024/01/28 00:16:52;;;;;;;2.00;1.42;;;;;;;32.45;22.91;100617.50;7393266;19;20022;-88
2024/01/28 00:19:18;;;;;;;2.90;1.23;;;;;;;32.49;23.33;100614.91;7393704;19;20078;-87
2024/01/28 00:21:44;;;;;;;0.50;0.50;;;;;;;32.59;22.82;100609.91;7391899;19;20073;-87
2024/01/28 00:24:11;;;;;;;1.33;1.23;;;;;;;32.63;22.88;100622.47;7390952;19;20017;-87
2024/01/28 00:26:38;;;;;;;0.98;0.60;;;;;;;32.65;22.89;100618.97;7396573;19;20022;-87
2024/01/28 00:29:04;;;;;;;0.17;0.10;;;;;;;32.42;23.50;100631.00;7390331;19;20134;-87
2024/01/28 00:31:30;;;;;;;1.85;0.65;;;;;;;32.74;23.19;100609.53;7392243;19;20011;-87
2024/01/28 00:33:57;;;;;;;0.20;0.20;;;;;;;32.87;23.08;100604.00;7391258;19;20015;-86
2024/01/28 00:36:23;;;;;;;1.35;0.50;;;;;;;32.94;22.46;100592.88;7394523;19;20429;-87
2024/01/28 00:38:49;;;;;;;0.10;0.10;;;;;;;32.79;22.76;100583.22;7391031;19;20029;-87
2024/01/28 00:41:23;;;;;;;1.30;0.63;;;;;;;32.73;22.84;100574.16;7392717;19;20002;-86
2024/01/28 00:43:52;;;;;;;0.55;0.52;;;;;;;32.74;22.59;100564.13;7391007;19;20019;-87
2024/01/28 00:46:20;;;;;;;0.77;0.38;;;;;;;32.84;22.51;100561.94;7392757;19;20025;-87
2024/01/28 00:48:46;;;;;;;0.75;0.75;;;;;;;32.88;23.00;100562.22;7394608;19;20022;-87
2024/01/28 00:51:13;;;;;;;0.93;0.85;;;;;;;32.97;22.36;100551.22;7391503;19;20017;-88
2024/01/28 00:53:39;;;;;;;0.77;0.30;;;;;;;33.06;22.82;100559.09;7392683;19;20010;-88
2024/01/28 00:56:05;;;;;;;0.40;0.40;;;;;;;33.07;22.56;100549.81;7391456;19;20027;-87
2024/01/28 00:58:31;;;;;;;1.30;0.32;;;;;;;33.18;22.73;100548.41;7395293;19;20035;-89
2024/01/28 01:00:57;;;;;;;0.38;0.10;;;;;;;33.30;22.76;100531.88;7390056;19;20026;-86
2024/01/28 01:03:24;;;;;;;0.10;0.10;;;;;;;33.35;22.55;100533.66;7391605;19;20024;-86
2024/01/28 01:05:50;;;;;;;0.68;0.20;;;;;;;33.50;22.35;100533.22;7391553;19;20035;-87
2024/01/28 01:08:16;;;;;;;2.03;1.13;;;;;;;33.48;22.40;100533.84;7391240;19;20090;-85
2024/01/28 01:10:42;;;;;;;1.02;0.30;;;;;;;33.40;22.16;100523.88;7392829;19;20014;-86
2024/01/28 01:13:08;;;;;;;1.45;1.02;;;;;;;33.38;22.43;100523.75;7392612;19;20010;-86
2024/01/28 01:15:35;;;;;;;0.28;0.28;;;;;;;33.46;22.46;100521.41;7389648;19;20456;-86
2024/01/28 01:18:01;;;;;;;1.65;0.30;;;;;;;33.42;22.68;100515.34;7390765;19;20011;-86
2024/01/28 01:20:27;;;;;;;1.08;0.47;;;;;;;34.06;22.13;100516.75;7394004;19;20068;-86
2024/01/28 01:22:54;;;;;;;3.35;0.68;;;;;;;34.43;22.01;100513.25;7390670;19;20387;-87
2024/01/28 01:25:20;;;;;;;0.50;0.10;;;;;;;34.43;21.83;100511.13;7391013;19;20041;-86
2024/01/28 01:27:48;;;;;;;0.73;0.73;;;;;;;34.44;21.84;100514.78;7394018;19;20082;-86
2024/01/28 01:30:15;;;;;;;0.10;0.10;;;;;;;34.34;21.87;100518.53;7389709;19;20019;-87
2024/01/28 01:32:41;;;;;;;0.10;0.10;;;;;;;33.75;22.05;100512.47;7391365;19;20022;-86
2024/01/28 01:35:08;;;;;;;0.80;0.70;;;;;;;33.46;22.15;100499.03;7389933;19;20018;-86
2024/01/28 01:37:34;;;;;;;4.30;0.50;;;;;;;33.40;22.46;100497.88;7395328;19;20039;-86
2024/01/28 01:40:01;;;;;;;12.63;0.40;;;;;;;33.24;22.38;100491.03;7390897;19;20406;-87
2024/01/28 01:42:27;;;;;;;9.73;0.55;;;;;;;33.25;22.59;100489.66;7391862;19;20010;-86
2024/01/28 01:44:53;;;;;;;1.88;1.27;;;;;;;33.30;22.19;100482.78;7395274;19;20018;-86
2024/01/28 01:47:19;;;;;;;1.58;0.93;;;;;;;33.26;22.63;100462.31;7398322;19;20026;-86
2024/01/28 01:49:46;;;;;;;0.40;0.40;;;;;;;33.21;22.40;100466.28;7398352;19;20014;-86
2024/01/28 01:52:16;;;;;;;0.10;0.10;;;;;;;33.16;22.30;100467.41;7397689;19;20015;-87
2024/01/28 01:54:43;;;;;;;4.68;0.95;;;;;;;33.20;22.27;100467.69;7396254;19;20044;-87
2024/01/28 01:57:10;;;;;;;0.50;0.50;;;;;;;32.73;23.03;100452.97;7397775;19;20107;-87
2024/01/28 01:59:37;;;;;;;0.45;0.40;;;;;;;32.92;22.60;100454.22;7397627;19;20018;-87
2024/01/28 02:02:09;;;;;;;1.67;0.38;;;;;;;32.80;22.52;100454.91;7395756;19;20052;-87
2024/01/28 02:04:35;;;;;;;;;;;;;;;32.97;22.62;100450.19;7399777;19;20018;-86
2024/01/28 02:07:01;;;;;;;0.93;0.45;;;;;;;32.98;22.63;100455.38;7395874;19;19918;-87
2024/01/28 02:09:28;;;;;;;0.20;0.20;;;;;;;32.99;22.43;100450.34;7393538;19;20082;-86
2024/01/28 02:11:54;;;;;;;4.05;0.50;;;;;;;32.99;22.73;100451.13;7402918;19;20018;-87
2024/01/28 02:14:27;;;;;;;13.93;1.27;;;;;;;33.05;22.37;100453.69;7395694;19;20022;-86
2024/01/28 02:16:53;;;;;;;1.27;0.32;;;;;;;32.73;22.65;100450.06;7396512;19;20018;-86
2024/01/28 02:19:19;;;;;;;0.90;0.50;;;;;;;32.83;22.59;100447.88;7396829;19;20078;-87
2024/01/28 02:21:45;;;;;;;3.30;0.77;;;;;;;32.85;22.99;100441.50;7399500;19;20014;-87
2024/01/28 02:24:15;;;;;;;0.50;0.50;;;;;;;33.37;22.30;100435.59;7395292;19;20019;-86
2024/01/28 02:26:41;;;;;;;15.65;0.55;;;;;;;33.54;22.35;100429.53;7395647;19;20018;-86
2024/01/28 02:29:07;;;;;;;5.68;1.13;;;;;;;32.77;22.95;100447.47;7393470;19;20464;-86
2024/01/28 02:31:33;;;;;;;0.55;0.55;;;;;;;32.62;22.67;100429.78;7398120;19;20021;-87
2024/01/28 02:34:00;;;;;;;0.65;0.40;;;;;;;33.36;22.00;100445.63;7397555;19;20560;-87
2024/01/28 02:36:28;;;;;;;0.63;0.15;;;;;;;33.73;22.21;100434.31;7397811;19;20018;-87
2024/01/28 02:38:55;;;;;;;0.20;0.10;;;;;;;33.93;21.78;100442.16;7396680;19;20238;-86
2024/01/28 02:41:21;;;;;;;0.20;0.20;;;;;;;33.77;21.86;100429.56;7398402;19;20019;-86
2024/01/28 02:43:47;;;;;;;0.25;0.25;;;;;;;33.86;21.98;100433.72;7394943;19;20014;-86
2024/01/28 02:46:14;;;;;;;1.35;0.30;;;;;;;31.77;23.49;100428.81;7396149;19;20014;-86
2024/01/28 02:48:41;;;;;;;6.32;0.77;;;;;;;32.29;22.78;100426.81;7399113;19;20030;-86
2024/01/28 02:51:07;;;;;;;0.45;0.45;;;;;;;32.51;23.16;100422.59;7394965;19;20515;-86
2024/01/28 02:53:33;;;;;;;0.52;0.52;;;;;;;32.49;23.17;100419.56;7395890;19;20056;-86
2024/01/28 02:56:02;;;;;;;0.50;0.50;;;;;;;32.50;23.09;100417.44;7393533;19;20034;-86
2024/01/28 02:58:30;;;;;;;0.22;0.20;;;;;;;33.32;22.62;100413.59;7399567;19;20070;-86
2024/01/28 03:00:56;;;;;;;10.63;1.98;;;;;;;32.94;23.06;100408.16;7396368;19;20522;-85
2024/01/28 03:03:22;;;;;;;0.60;0.38;;;;;;;32.57;23.06;100405.69;7400261;19;20026;-87
2024/01/28 03:05:48;;;;;;;0.38;0.22;;;;;;;32.57;23.28;100399.19;7392399;19;20019;-85
2024/01/28 03:08:15;;;;;;;0.43;0.32;;;;;;;33.43;22.58;100398.44;7395424;19;20029;-86
2024/01/28 03:10:41;;;;;;;0.10;0.10;;;;;;;33.58;22.32;100390.09;7397022;19;20030;-86
2024/01/28 03:13:07;;;;;;;1.40;0.85;;;;;;;33.04;23.06;100391.53;7394049;19;20030;-87
2024/01/28 03:15:33;;;;;;;0.40;0.40;;;;;;;33.99;22.15;100381.84;7398534;19;20007;-86
2024/01/28 03:17:59;;;;;;;0.15;0.15;;;;;;;34.06;22.09;100385.88;7395856;19;20014;-86
2024/01/28 03:20:26;;;;;;;0.60;0.60;;;;;;;34.21;21.78;100380.34;7395200;19;20015;-86
2024/01/28 03:22:52;;;;;;;0.30;0.30;;;;;;;34.12;22.29;100372.56;7394525;19;20025;-86
2024/01/28 03:25:18;;;;;;;0.63;0.43;;;;;;;34.33;21.96;100369.50;7394930;19;20022;-86
2024/01/28 03:27:44;;;;;;;1.15;0.28;;;;;;;34.27;22.26;100366.25;7398521;19;20584;-86
2024/01/28 03:30:11;;;;;;;0.30;0.30;;;;;;;33.87;22.43;100355.06;7394178;19;20023;-86
2024/01/28 03:32:37;;;;;;;3.33;0.75;;;;;;;34.32;21.81;100362.22;7393658;19;20015;-86
2024/01/28 03:35:03;;;;;;;1.27;0.90;;;;;;;33.91;22.19;100352.44;7391784;19;20028;-86
2024/01/28 03:37:30;;;;;;;0.20;0.20;;;;;;;33.64;22.04;100352.16;7395811;19;20021;-86
2024/01/28 03:39:56;;;;;;;0.15;0.15;;;;;;;34.01;22.47;100343.63;7393163;19;20018;-86
2024/01/28 03:42:22;;;;;;;4.03;0.40;;;;;;;34.07;22.20;100344.75;7393578;19;20015;-86
2024/01/28 03:44:48;;;;;;;0.73;0.20;;;;;;;34.15;22.48;100342.38;7392064;19;20010;-85
2024/01/28 03:47:14;;;;;;;8.65;0.52;;;;;;;34.27;22.38;100334.44;7394994;19;20015;-86
2024/01/28 03:49:40;;;;;;;1.20;0.32;;;;;;;34.30;22.14;100338.97;7393854;19;20070;-85
2024/01/28 03:52:06;;;;;;;4.55;0.47;;;;;;;34.38;22.11;100326.34;7392274;19;20043;-86
2024/01/28 03:54:33;;;;;;;0.20;0.20;;;;;;;34.48;22.10;100321.19;7397297;19;20490;-86
2024/01/28 03:56:59;;;;;;;0.10;0.10;;;;;;;34.51;22.37;100305.47;7396750;19;20023;-86
2024/01/28 03:59:25;;;;;;;1.40;1.05;;;;;;;33.62;22.25;100302.91;7392192;19;20014;-86
2024/01/28 04:01:51;;;;;;;5.07;0.93;;;;;;;33.96;22.30;100299.25;7396207;19;20042;-86
2024/01/28 04:04:18;;;;;;;1.02;0.63;;;;;;;32.70;22.96;100303.44;7393171;19;20014;-86
2024/01/28 04:06:44;;;;;;;2.00;0.57;;;;;;;31.38;24.02;100307.94;7392017;19;20018;-86
2024/01/28 04:09:11;;;;;;;9.05;0.90;;;;;;;31.38;24.44;100296.44;7392651;19;20491;-86
2024/01/28 04:11:37;;;;;;;0.50;0.40;;;;;;;32.41;23.40;100306.53;7391900;19;20373;-86
2024/01/28 04:14:04;;;;;;;0.55;0.10;;;;;;;33.53;22.63;100300.91;7398435;19;20034;-86
2024/01/28 04:16:32;;;;;;;0.43;0.43;;;;;;;34.19;22.20;100290.56;7391746;19;20022;-86
2024/01/28 04:18:58;;;;;;;0.20;0.20;;;;;;;34.35;22.30;100290.75;7392086;19;20036;-86
2024/01/28 04:21:26;;;;;;;0.10;0.10;;;;;;;34.37;22.05;100284.38;7392195;19;20027;-86
2024/01/28 04:23:52;;;;;;;0.85;0.55;;;;;;;32.83;22.82;100294.94;7395776;19;20585;-86
2024/01/28 04:26:18;;;;;;;0.45;0.45;;;;;;;32.68;23.09;100298.25;7391713;19;20077;-86
2024/01/28 04:28:47;;;;;;;1.35;1.00;;;;;;;32.77;23.09;100294.53;7395164;19;20025;-86
2024/01/28 04:31:14;;;;;;;1.02;0.55;;;;;;;32.59;23.17;100292.59;7389832;19;20015;-86
2024/01/28 04:33:41;;;;;;;2.35;1.02;;;;;;;32.43;23.47;100286.47;7390898;19;20018;-86
2024/01/28 04:36:08;;;;;;;0.73;0.30;;;;;;;32.36;23.67;100286.66;7393183;19;20018;-86
2024/01/28 04:38:34;;;;;;;0.30;0.30;;;;;;;32.29;23.85;100288.41;7391311;19;20014;-87
2024/01/28 04:41:01;;;;;;;5.38;1.65;;;;;;;31.56;24.11;100287.59;7391222;19;20014;-86
2024/01/28 04:43:27;;;;;;;0.52;0.52;;;;;;;32.21;23.80;100284.97;7390814;19;20014;-86
2024/01/28 04:45:53;;;;;;;1.05;0.15;;;;;;;32.46;23.84;100282.34;7388987;19;20683;-86
2024/01/28 04:48:20;;;;;;;0.30;0.20;;;;;;;32.80;23.50;100273.09;7394156;19;20014;-86
2024/01/28 04:50:46;;;;;;;0.63;0.10;;;;;;;32.92;23.36;100263.72;7391450;19;20022;-86
2024/01/28 04:53:12;;;;;;;0.30;0.30;;;;;;;32.85;23.47;100257.53;7390717;19;20440;-86
2024/01/28 04:55:38;;;;;;;0.63;0.63;;;;;;;32.60;23.77;100265.25;7388728;19;20018;-86
2024/01/28 04:58:05;;;;;;;0.28;0.20;;;;;;;31.67;24.27;100258.13;7392772;19;20018;-86
2024/01/28 05:00:31;;;;;;;2.05;0.30;;;;;;;31.23;24.52;100256.50;7394623;19;20030;-85
2024/01/28 05:02:57;;;;;;;0.20;0.20;;;;;;;31.03;24.80;100245.66;7391420;19;20019;-86
2024/01/28 05:05:24;;;;;;;1.50;0.73;;;;;;;31.71;24.56;100235.38;7389410;19;20033;-86
2024/01/28 05:07:50;;;;;;;2.88;0.60;;;;;;;31.42;24.76;100230.53;7390503;19;20022;-86
2024/01/28 05:10:16;;;;;;;5.88;2.13;;;;;;;31.54;24.15;100221.22;7389490;19;20011;-86
2024/01/28 05:12:45;;;;;;;0.43;0.30;;;;;;;30.95;24.66;100214.19;7390579;19;20017;-86
2024/01/28 05:15:16;;;;;;;2.40;0.50;;;;;;;30.91;24.97;100213.88;7389200;19;20033;-86
2024/01/28 05:17:42;;;;;;;1.05;0.60;;;;;;;30.02;25.74;100215.13;7389758;19;20015;-86
2024/01/28 05:20:09;;;;;;;0.25;0.25;;;;;;;30.50;24.95;100204.41;7390665;19;20023;-85
2024/01/28 05:22:36;;;;;;;10.07;0.47;;;;;;;31.33;24.64;100205.41;7392832;19;20030;-85
2024/01/28 05:25:02;;;;;;;0.63;0.35;;;;;;;33.06;23.50;100195.38;7390628;19;20015;-86
2024/01/28 05:27:29;;;;;;;0.75;0.68;;;;;;;33.53;22.80;100203.44;7390216;19;20010;-86
2024/01/28 05:29:58;;;;;;;0.82;0.82;;;;;;;33.77;23.04;100207.03;7391148;19;20027;-86
2024/01/28 05:32:28;;;;;;;0.35;0.35;;;;;;;33.92;22.53;100202.84;7393083;19;20030;-86
2024/01/28 05:34:56;;;;;;;1.45;0.40;;;;;;;34.01;22.60;100208.53;7389280;19;20030;-86
2024/01/28 05:37:22;;;;;;;0.45;0.45;;;;;;;34.94;21.81;100205.19;7389592;19;20410;-87
2024/01/28 05:39:48;;;;;;;1.67;0.77;;;;;;;32.58;23.23;100213.19;7390345;19;20378;-90
2024/01/28 05:42:14;;;;;;;3.30;0.55;;;;;;;31.65;24.12;100214.78;7390502;19;20083;-89
2024/01/28 05:44:40;;;;;;;1.35;0.70;;;;;;;31.97;23.99;100211.25;7393679;19;20010;-88
2024/01/28 05:47:07;;;;;;;0.65;0.65;;;;;;;31.98;24.30;100207.78;7390845;19;20014;-89
2024/01/28 05:49:33;;;;;;;2.15;0.52;;;;;;;31.83;23.88;100213.94;7388723;19;20024;-89
2024/01/28 05:51:59;;;;;;;0.65;0.22;;;;;;;31.73;24.31;100206.72;7392394;19;20022;-88
2024/01/28 05:54:25;;;;;;;0.68;0.40;;;;;;;31.83;24.08;100202.41;7391317;19;20014;-89
2024/01/28 05:56:51;;;;;;;2.50;0.43;;;;;;;30.77;24.82;100204.22;7395491;19;20022;-89
2024/01/28 05:59:17;;;;;;;0.77;0.73;;;;;;;31.65;24.46;100204.03;7389489;19;20019;-89
2024/01/28 06:01:43;;;;;;;0.43;0.25;;;;;;;31.70;24.45;100202.19;7390658;19;20015;-90
2024/01/28 06:04:10;;;;;;;0.73;0.68;;;;;;;31.78;24.27;100199.84;7390258;19;20018;-90
2024/01/28 06:06:36;;;;;;;1.35;0.75;;;;;;;31.90;24.13;100186.28;7390904;19;20046;-90
2024/01/28 06:09:04;;;;;;;0.40;0.40;;;;;;;31.88;24.31;100191.91;7391953;19;20030;-89
2024/01/28 06:11:30;;;;;;;0.30;0.30;;;;;;;31.92;24.45;100174.91;7389218;19;20370;-89
2024/01/28 06:13:56;;;;;;;12.13;1.02;;;;;;;31.87;23.96;100178.88;7389755;19;20019;-89
2024/01/28 06:16:22;;;;;;;3.50;0.50;;;;;;;31.68;24.24;100171.13;7389264;19;20007;-89
2024/01/28 06:18:49;;;;;;;1.95;1.20;;;;;;;30.87;24.88;100172.56;7394719;19;20042;-89
2024/01/28 06:21:15;;;;;;;0.10;0.10;;;;;;;30.61;24.68;100174.28;7391235;19;20611;-89
2024/01/28 06:23:42;;;;;;;1.00;0.73;;;;;;;30.77;24.79;100174.69;7389599;19;20010;-89
2024/01/28 06:26:08;;;;;;;0.50;0.50;;;;;;;30.78;24.65;100171.22;7387759;19;20014;-88
2024/01/28 06:28:34;;;;;;;0.60;0.40;;;;;;;31.22;24.34;100174.41;7393258;19;20473;-89
2024/01/28 06:31:00;;;;;;;13.25;0.90;;;;;;;30.46;25.11;100166.75;7395968;19;20048;-89
2024/01/28 06:33:28;;;;;;;0.88;0.88;;;;;;;30.47;25.23;100164.66;7397907;19;20358;-88
2024/01/28 06:35:54;;;;;;;1.38;1.27;;;;;;;32.07;24.06;100169.50;7393929;19;20497;-88
2024/01/28 06:38:20;;;;;;;0.22;0.22;;;;;;;32.27;23.66;100172.19;7399229;19;20014;-89
2024/01/28 06:40:46;;;;;;;4.25;0.52;;;;;;;30.45;24.77;100179.59;7397772;19;20039;-89
2024/01/28 06:43:12;;;;;;;0.93;0.43;;;;;;;30.14;25.09;100175.09;7397276;19;20007;-88
2024/01/28 06:45:38;;;;;;;1.00;0.75;;;;;;;30.06;25.21;100178.09;7396170;19;20018;-88
2024/01/28 06:48:05;;;;;;;0.88;0.82;;;;;;;29.76;25.62;100161.44;7398445;19;20085;-89
2024/01/28 06:50:31;;;;;;;17.33;0.55;;;;;;;29.86;25.46;100157.25;7395052;19;20377;-88
2024/01/28 06:53:01;;;;;;;1.75;0.65;;;;;;;29.84;25.12;100168.56;7395474;19;20025;-89
2024/01/28 06:55:27;;;;;;;0.63;0.63;;;;;;;29.91;25.28;100166.91;7395607;19;20503;-88
2024/01/28 06:57:53;;;;;;;5.38;0.73;;;;;;;29.97;25.34;100155.88;7399554;19;20019;-88
2024/01/28 07:00:19;;;;;;;0.20;0.20;;;;;;;29.89;25.17;100158.91;7395522;19;20035;-88
2024/01/28 07:02:46;;;;;;;3.70;0.70;;;;;;;29.78;25.56;100148.00;7397701;19;20014;-88
2024/01/28 07:05:12;;;;;;;6.63;0.77;;;;;;;29.75;24.88;100143.50;7393846;19;20026;-89
2024/01/28 07:07:39;;;;;;;0.60;0.43;;;;;;;29.63;25.30;100148.28;7395838;19;20353;-89
2024/01/28 07:10:05;;;;;;;0.45;0.20;;;;;;;29.54;25.33;100146.13;7399196;19;20006;-89
2024/01/28 07:12:31;;;;;;;1.85;0.45;;;;;;;29.58;25.35;100132.13;7397006;19;20022;-89
2024/01/28 07:14:58;;;;;;;5.05;1.20;;;;;;;29.69;25.39;100140.09;7395493;19;20476;-88
2024/01/28 07:17:24;;;;;;;0.88;0.75;;;;;;;29.77;25.33;100135.03;7395004;19;20018;-88
2024/01/28 07:19:50;;;;;;;4.68;0.52;;;;;;;29.79;25.24;100135.16;7397078;19;20018;-89
2024/01/28 07:22:16;;;;;;;1.35;0.73;;;;;;;29.85;25.17;100143.47;7395312;19;20078;-89
2024/01/28 07:24:42;;;;;;;1.40;0.70;;;;;;;29.88;25.55;100127.91;7394973;19;20019;-89
2024/01/28 07:27:08;;;;;;;1.75;0.57;;;;;;;30.01;25.76;100132.44;7397634;19;20468;-89
2024/01/28 07:29:34;;;;;;;0.60;0.43;;;;;;;30.05;25.29;100124.13;7392478;19;20476;-88
2024/01/28 07:32:00;;;;;;;3.60;0.75;;;;;;;30.27;25.31;100112.16;7395943;19;20009;-89
2024/01/28 07:34:26;;;;;;;1.00;0.95;;;;;;;30.32;25.33;100113.97;7394052;19;20338;-89
2024/01/28 07:36:54;;;;;;;0.73;0.68;;;;;;;30.34;25.07;100110.50;7395591;19;20377;-89
2024/01/28 07:39:20;;;;;;;1.27;0.45;;;;;;;30.16;25.25;100103.41;7394761;19;20019;-89
2024/01/28 07:41:46;;;;;;;0.68;0.30;;;;;;;30.02;25.14;100096.63;7392085;19;20007;-89
2024/01/28 07:44:12;;;;;;;1.45;0.52;;;;;;;29.78;25.44;100090.56;7398278;19;20024;-89
2024/01/28 07:46:38;;;;;;;22.67;0.93;;;;;;;29.71;25.36;100085.72;7394384;19;20023;-89
2024/01/28 07:49:05;;;;;;;6.05;1.17;;;;;;;29.45;25.37;100083.00;7393065;19;20014;-89
2024/01/28 07:51:31;;;;;;;1.90;0.63;;;;;;;29.37;25.57;100074.50;7395502;19;20010;-89
2024/01/28 07:53:57;;;;;;;0.30;0.25;;;;;;;29.31;25.64;100076.94;7394199;19;20014;-88
2024/01/28 07:56:23;;;;;;;0.57;0.57;;;;;;;29.32;25.69;100084.19;7396352;19;20662;-88
2024/01/28 07:58:49;;;;;;;0.30;0.28;;;;;;;29.43;25.41;100083.59;7397652;19;20022;-89
2024/01/28 08:01:15;;;;;;;6.22;0.90;;;;;;;29.37;25.59;100083.13;7393770;19;20410;-87
2024/01/28 08:03:41;;;;;;;1.55;0.68;;;;;;;29.27;25.35;100079.50;7396198;19;20022;-93
2024/01/28 08:06:09;;;;;;;15.15;0.73;;;;;;;29.21;25.24;100073.28;7394398;19;20026;-91
2024/01/28 08:08:35;;;;;;;0.40;0.40;;;;;;;29.12;25.57;100076.88;7393418;19;20007;-91
2024/01/28 08:11:02;;;;;;;0.35;0.35;;;;;;;29.20;25.68;100084.00;7394753;19;20034;-92
2024/01/28 08:13:28;;;;;;;0.65;0.65;;;;;;;30.11;24.85;100067.09;7394969;19;20398;-91
2024/01/28 08:16:01;;;;;;;1.40;0.93;;;;;;;29.21;25.61;100074.06;7392641;19;20018;-90
2024/01/28 08:18:28;;;;;;;4.47;0.57;;;;;;;29.46;25.33;100076.63;7393451;19;20074;-92
2024/01/28 08:20:54;;;;;;;0.52;0.50;;;;;;;29.56;25.58;100074.53;7393975;19;20048;-91
2024/01/28 08:23:20;;;;;;;0.10;0.10;;;;;;;29.66;25.74;100077.41;7395924;19;20096;-91
2024/01/28 08:25:46;;;;;;;1.13;0.40;;;;;;;29.63;25.63;100065.00;7393539;19;20019;-92
2024/01/28 08:28:13;;;;;;;0.73;0.73;;;;;;;29.69;25.56;100068.31;7399031;19;20342;-91
2024/01/28 08:30:39;;;;;;;3.10;0.50;;;;;;;30.23;25.25;100070.88;7393774;19;20014;-91
2024/01/28 08:33:05;;;;;;;0.63;0.60;;;;;;;30.90;24.91;100074.31;7394108;19;20065;-91
2024/01/28 08:35:34;;;;;;;0.20;0.20;;;;;;;31.21;24.74;100080.78;7394807;19;20357;-91
2024/01/28 08:38:00;;;;;;;10.50;1.15;;;;;;;30.11;25.35;100085.09;7398536;19;20457;-91
2024/01/28 08:40:26;;;;;;;0.50;0.50;;;;;;;29.85;25.60;100089.66;7392720;19;20014;-91
2024/01/28 08:42:53;;;;;;;2.28;0.63;;;;;;;29.76;25.60;100078.94;7392851;19;20015;-91
2024/01/28 08:45:19;;;;;;;3.67;0.68;;;;;;;29.85;25.56;100080.28;7393257;19;20014;-92
2024/01/28 08:47:45;;;;;;;0.82;0.50;;;;;;;29.83;25.68;100086.66;7395718;19;20018;-93
2024/01/28 08:50:11;;;;;;;2.13;0.40;;;;;;;29.88;25.73;100076.97;7394017;19;20010;-93
2024/01/28 08:52:37;;;;;;;9.82;1.73;;;;;;;29.90;25.45;100077.13;7393801;19;20019;-92
2024/01/28 08:55:04;;;;;;;3.83;0.95;;;;;;;29.88;25.55;100071.25;7393223;19;20508;-93
2024/01/28 08:57:32;;;;;;;3.70;1.30;;;;;;;29.84;25.58;100075.94;7396303;19;20521;-92
2024/01/28 08:59:58;;;;;;;0.30;0.30;;;;;;;29.87;25.75;100075.47;7393602;19;20010;-92
2024/01/28 09:02:24;;;;;;;0.20;0.20;;;;;;;29.77;25.56;100066.09;7394925;19;20507;-88
2024/01/28 09:04:50;;;;;;;9.27;0.93;;;;;;;29.95;25.73;100063.81;7392136;19;20046;-93
2024/01/28 09:07:16;;;;;;;0.85;0.63;;;;;;;29.91;25.84;100052.78;7395509;19;20025;-95
2024/01/28 09:09:42;;;;;;;1.05;0.68;;;;;;;29.91;25.44;100055.66;7392269;19;20378;-94
2024/01/28 09:12:09;;;;;;;8.50;1.38;;;;;;;29.84;25.88;100058.69;7394068;19;20026;-92
2024/01/28 09:14:37;;;;;;;1.27;0.55;;;;;;;29.82;25.71;100047.78;7393086;19;20014;-95
2024/01/28 09:17:03;;;;;;;1.17;0.93;;;;;;;29.82;25.57;100042.06;7395417;19;20021;-94
2024/01/28 09:19:29;;;;;;;4.47;0.40;;;;;;;29.85;25.83;100032.22;7393471;19;20031;-93
2024/01/28 09:21:55;;;;;;;0.65;0.35;;;;;;;29.92;25.86;100031.31;7393604;19;20029;-93
2024/01/28 09:24:21;;;;;;;0.68;0.68;;;;;;;29.91;25.90;100041.28;7394265;19;20035;-95
2024/01/28 09:26:48;;;;;;;1.75;0.43;;;;;;;29.95;25.73;100035.84;7395211;19;20053;-96
2024/01/28 09:29:14;;;;;;;3.55;0.77;;;;;;;29.94;25.66;100031.47;7394475;19;20017;-96
2024/01/28 09:31:44;;;;;;;0.10;0.10;;;;;;;29.90;26.12;100034.06;7396779;19;20015;-93
2024/01/28 09:34:10;;;;;;;0.95;0.30;;;;;;;29.87;25.85;100025.88;7395095;19;20090;-93
2024/01/28 09:36:36;;;;;;;0.73;0.32;;;;;;;29.87;25.73;100025.88;7397302;19;20046;-94
2024/01/28 09:39:02;;;;;;;1.58;0.57;;;;;;;29.82;26.01;100021.94;7396746;19;20399;-93
2024/01/28 09:41:41;;;;;;;2.28;0.43;;;;;;;29.78;26.03;100030.28;7395553;19;20010;-96
2024/01/28 09:44:07;;;;;;;3.38;0.40;;;;;;;29.84;25.96;100036.47;7392274;19;20024;-96
2024/01/28 09:46:34;;;;;;;13.45;0.50;;;;;;;30.03;26.10;100035.69;7391923;19;20326;-96
2024/01/28 09:49:01;;;;;;;0.28;0.28;;;;;;;29.90;26.03;100039.78;7390379;19;20006;-96
2024/01/28 09:51:28;;;;;;;0.55;0.20;;;;;;;29.98;26.29;100034.63;7393893;19;20050;-96
2024/01/28 09:53:54;;;;;;;6.25;0.93;;;;;;;30.12;26.06;100031.28;7396758;19;20018;-96
2024/01/28 09:56:20;;;;;;;0.52;0.52;;;;;;;30.06;26.11;100036.59;7396944;19;20018;-93
2024/01/28 09:58:47;;;;;;;0.57;0.32;;;;;;;30.02;26.08;100039.19;7396437;19;20015;-92
2024/01/28 10:01:14;;;;;;;3.50;1.52;;;;;;;29.98;26.04;100028.88;7394800;19;20425;-93
2024/01/28 10:03:41;;;;;;;2.08;0.40;;;;;;;29.96;25.90;100031.63;7392266;19;20011;-92
2024/01/28 10:06:07;;;;;;;0.68;0.68;;;;;;;30.04;26.27;100031.44;7400875;19;20349;-92
2024/01/28 10:08:34;;;;;;;0.43;0.30;;;;;;;30.32;26.23;100033.50;7398763;19;20025;-92
2024/01/28 10:11:03;;;;;;;0.22;0.10;;;;;;;30.45;26.41;100030.13;7402459;19;20023;-93
2024/01/28 10:13:32;;;;;;;0.30;0.30;;;;;;;30.45;25.94;100020.78;7398537;19;20031;-93
2024/01/28 10:15:58;;;;;;;0.50;0.32;;;;;;;30.45;25.80;100023.66;7396146;19;20014;-92
2024/01/28 10:18:25;;;;;;;0.30;0.30;;;;;;;30.52;25.96;100034.19;7397266;19;20013;-93
2024/01/28 10:20:51;;;;;;;0.88;0.60;;;;;;;30.40;25.96;100027.59;7398180;19;20018;-91
2024/01/28 10:23:18;;;;;;;0.30;0.20;;;;;;;30.36;26.09;100015.81;7398694;19;20019;-91
2024/01/28 10:25:44;;;;;;;0.55;0.32;;;;;;;30.59;26.14;100022.50;7395438;19;20050;-91
2024/01/28 10:28:11;;;;;;;0.43;0.43;;;;;;;30.69;25.95;100025.31;7400097;19;20772;-93
2024/01/28 10:30:37;;;;;;;1.00;0.55;;;;;;;30.55;25.91;100022.22;7396720;19;20034;-93
2024/01/28 10:33:03;;;;;;;0.98;0.88;;;;;;;30.53;25.85;100018.47;7397553;19;20010;-93
2024/01/28 10:35:29;;;;;;;0.40;0.40;;;;;;;30.64;25.88;100018.56;7397184;19;20018;-93
2024/01/28 10:37:56;;;;;;;0.52;0.50;;;;;;;30.76;26.16;100009.25;7396784;19;20031;-92
2024/01/28 10:40:36;;;;;;;0.68;0.63;;;;;;;30.65;25.88;100004.91;7397357;19;20011;-94
2024/01/28 10:43:03;;;;;;;0.85;0.65;;;;;;;30.67;26.02;100016.56;7397948;19;20029;-92
2024/01/28 10:45:30;;;;;;;1.45;0.55;;;;;;;30.69;26.06;100025.31;7396201;19;20081;-91
2024/01/28 10:48:06;;;;;;;0.73;0.50;;;;;;;30.66;25.84;100020.81;7399622;19;20022;-90
2024/01/28 10:50:33;;;;;;;4.13;0.50;;;;;;;30.82;25.91;100012.56;7395696;19;20424;-90
2024/01/28 10:52:59;;;;;;;0.47;0.25;;;;;;;31.23;25.58;100014.72;7399536;19;20081;-94
2024/01/28 10:55:28;;;;;;;3.75;0.30;;;;;;;30.83;26.19;100011.94;7398590;19;20505;-93
2024/01/28 10:57:55;;;;;;;2.30;0.52;;;;;;;30.86;26.21;99998.47;7401442;19;20085;-93
2024/01/28 11:00:21;;;;;;;0.32;0.32;;;;;;;30.90;25.95;99993.00;7396371;19;20028;-92
2024/01/28 11:02:49;;;;;;;0.57;0.57;;;;;;;30.98;26.14;99979.94;7397026;19;20396;-92
2024/01/28 11:05:16;;;;;;;0.50;0.38;;;;;;;31.00;26.11;99985.81;7396528;19;20014;-92
2024/01/28 11:07:43;;;;;;;1.45;0.60;;;;;;;31.18;26.35;99984.19;7398198;19;20511;-95
2024/01/28 11:10:09;;;;;;;1.35;0.52;;;;;;;31.70;26.17;99991.94;7397470;19;20342;-93
2024/01/28 11:12:37;;;;;;;0.55;0.55;;;;;;;31.78;25.81;99992.44;7396259;19;20026;-94
2024/01/28 11:15:03;;;;;;;0.52;0.40;;;;;;;31.74;25.99;99981.44;7395905;19;20022;-93
2024/01/28 11:17:33;;;;;;;1.60;0.80;;;;;;;31.77;25.54;99976.56;7396802;19;20473;-93
2024/01/28 11:20:16;;;;;;;0.80;0.77;;;;;;;31.54;25.95;99980.09;7396231;19;20472;-93
2024/01/28 11:22:48;;;;;;;0.30;0.15;;;;;;;31.87;25.90;99980.06;7394401;19;20384;-93